Portada
METAR-TAF:

METAR-TAF

Aeroports :

Qurayyat, Aràbia Saudita

latitud: 31-24N, longitud: 037-16E, altitud: 509 m

Observació

L'informe es va fer fa 34 minuts, a les 15:00 UTC
Vent 18 kt del Oest/Nord-Oest
Temperatura 38°C
Humitat 12%
Pressió 1005 hPa
Visibilitat 10 km o més
sense núvols per sota de 1500 mi sense presència de cumulonimbus.

METAR: OEGT 061500Z 29018KT CAVOK 38/04 Q1005 NOSIG

Hora: 18:34 (15:34 UTC)

Pronòstic

L'informe es va fer fa 4 hores i 34 minuts, a les 11:00 UTC
Pronòstic vàlid del 06 a les 12 UTC al 07 a les 18 UTC
Vent 13 kt del Nord/Nord-Oest
Visibilitat 10 km o més
sense núvols per sota de 1500 mi sense presència de cumulonimbus.
Evolucionant progressivament
l' 06 a les 22 UTC al 06 a les 24 UTC
Vent 3 kt amb direcció variable

TAF: OEGT 061100Z 0612/0718 33013KT CAVOK BECMG 0622/0624 VRB03KT

Observacions i pronòstics meteorològics de més de 4000 aeroports (METAR i TAF).

Les estacions disponibles són els punts grocs i vermells al mapa.

Posi el ratolí al punt desitjat per veure el nom de l'estació.

Feu clic per veure les observacions i els pronòstics meteorològics.

Per canviar el mapa: feu clic els botons verds amb una creu de color negre per apropar; al botó verd amb un guió per allunyar la imatge; o en les fletxes verdes per a mapes adjacents.


METAR-TAF: